Time;durP1;ratioP1;P1;durP2;ratioP2;P2;SDS_P1;SDS_P2;PMS_P1;PMS_P2;Temp;Humidity;BMP_temperature;BMP_pressure;BME280_temperature;BME280_humidity;BME280_pressure;Samples;Min_cycle;Max_cycle;Signal;HPM_P1;HPM_P2
2023/06/19 00:02:18;;;;;;;;;;;;;;;24.39;52.41;100724.19;2295093;77;50366;-74
2023/06/19 00:05:23;;;;;;;;;;;;;;;24.40;52.37;100723.12;2232197;79;52546;-75
2023/06/19 00:08:23;;;;;;;;;;;;;;;24.40;52.26;100723.12;2254391;79;22387;-73
2023/06/19 00:11:24;;;;;;;;;;;;;;;24.39;52.25;100722.01;2231383;79;50402;-74
2023/06/19 00:14:26;;;;;;;;;;;;;;;24.37;52.34;100724.92;2254406;79;50179;-73
2023/06/19 00:17:28;;;;;;;;;;;;;;;24.38;52.25;100722.54;2197253;80;50059;-73
2023/06/19 00:20:30;;;;;;;;;;;;;;;24.37;52.30;100728.16;2198983;80;50239;-73
2023/06/19 00:23:31;;;;;;;;;;;;;;;24.36;52.15;100720.58;2199439;80;50241;-74
2023/06/19 00:26:33;;;;;;;;;;;;;;;24.38;52.17;100721.19;2222282;80;50734;-74
2023/06/19 00:29:34;;;;;;;;;;;;;;;24.39;52.02;100726.89;2224268;78;50966;-73
2023/06/19 00:32:46;;;;;;;;;;;;;;;24.38;52.12;100725.25;2198606;80;53952;-74
2023/06/19 00:35:40;;;;;;;;;;;;;;;24.40;51.95;100729.88;2220933;79;22365;-73
2023/06/19 00:38:42;;;;;;;;;;;;;;;24.39;52.01;100726.06;2234203;79;50743;-74
2023/06/19 00:41:44;;;;;;;;;;;;;;;24.39;51.91;100722.83;2234032;79;51066;-74
2023/06/19 00:44:45;;;;;;;;;;;;;;;24.40;51.79;100721.77;2234072;79;51465;-73
2023/06/19 00:47:47;;;;;;;;;;;;;;;24.42;51.71;100723.73;2233754;79;51483;-74
2023/06/19 00:50:49;;;;;;;;;;;;;;;24.39;51.78;100729.59;2257158;77;51566;-72
2023/06/19 00:53:51;;;;;;;;;;;;;;;24.40;51.65;100724.48;2257279;78;51491;-73
2023/06/19 00:56:53;;;;;;;;;;;;;;;24.41;51.59;100729.39;2257068;79;51527;-72
2023/06/19 00:59:55;;;;;;;;;;;;;;;24.42;51.57;100729.67;2257173;79;50208;-73
2023/06/19 01:02:56;;;;;;;;;;;;;;;24.42;51.53;100722.38;2262646;77;50457;-73
2023/06/19 01:05:58;;;;;;;;;;;;;;;24.42;51.53;100716.16;2246705;78;51648;-73
2023/06/19 01:09:01;;;;;;;;;;;;;;;24.40;51.52;100718.24;2254189;79;51546;-74
2023/06/19 01:12:06;;;;;;;;;;;;;;;24.40;51.51;100724.48;2254340;79;50687;-74
2023/06/19 01:15:08;;;;;;;;;;;;;;;24.39;51.43;100717.42;2254005;77;50787;-73
2023/06/19 01:18:11;;;;;;;;;;;;;;;24.40;51.54;100712.30;2254025;79;49948;-73
2023/06/19 01:21:13;;;;;;;;;;;;;;;24.41;51.46;100709.92;2254322;79;50700;-72
2023/06/19 01:24:14;;;;;;;;;;;;;;;24.42;51.43;100701.28;2254312;79;50271;-72
2023/06/19 01:27:16;;;;;;;;;;;;;;;24.38;51.69;100700.91;2254105;77;50384;-73
2023/06/19 01:30:18;;;;;;;;;;;;;;;24.37;51.63;100700.58;2231253;79;52519;-73
2023/06/19 01:33:21;;;;;;;;;;;;;;;24.37;51.54;100699.23;2254343;79;50468;-73
2023/06/19 01:36:22;;;;;;;;;;;;;;;24.38;51.49;100701.41;2254321;79;51640;-73
2023/06/19 01:39:24;;;;;;;;;;;;;;;24.37;51.54;100697.05;2231389;79;51585;-73
2023/06/19 01:42:26;;;;;;;;;;;;;;;24.37;51.42;100701.11;2231540;79;52331;-73
2023/06/19 01:45:29;;;;;;;;;;;;;;;24.37;51.44;100689.77;2254358;79;51571;-73
2023/06/19 01:48:30;;;;;;;;;;;;;;;24.39;51.39;100692.26;2254144;79;51542;-74
2023/06/19 01:51:32;;;;;;;;;;;;;;;24.38;51.37;100690.09;2254395;78;50388;-73
2023/06/19 01:54:33;;;;;;;;;;;;;;;24.38;51.29;100684.67;2254395;79;51441;-73
2023/06/19 01:57:36;;;;;;;;;;;;;;;24.36;51.29;100684.06;2254263;79;52247;-74
2023/06/19 02:00:37;;;;;;;;;;;;;;;24.38;51.27;100679.77;2254339;79;51620;-73
2023/06/19 02:03:39;;;;;;;;;;;;;;;24.38;51.29;100675.21;2255789;78;51421;-72
2023/06/19 02:06:41;;;;;;;;;;;;;;;24.34;51.42;100675.34;2265548;77;52257;-74
2023/06/19 02:09:43;;;;;;;;;;;;;;;24.36;51.29;100679.19;2293691;77;51498;-73
2023/06/19 02:12:44;;;;;;;;;;;;;;;24.37;51.29;100675.42;2293390;77;51368;-72
2023/06/19 02:15:46;;;;;;;;;;;;;;;24.36;51.25;100674.59;2315371;75;51354;-72
2023/06/19 02:18:47;;;;;;;;;;;;;;;24.35;51.25;100667.52;2315151;76;51524;-73
2023/06/19 02:21:49;;;;;;;;;;;;;;;24.36;51.11;100658.38;2293113;77;51065;-73
2023/06/19 02:24:50;;;;;;;;;;;;;;;24.35;51.13;100662.10;2293103;77;51474;-73
2023/06/19 02:27:52;;;;;;;;;;;;;;;24.35;51.10;100662.10;2314990;76;51488;-73
2023/06/19 02:30:54;;;;;;;;;;;;;;;24.38;51.05;100656.78;2315390;76;51539;-72
2023/06/19 02:33:56;;;;;;;;;;;;;;;24.37;51.01;100649.20;2262943;78;52592;-72
2023/06/19 02:36:57;;;;;;;;;;;;;;;24.37;50.85;100651.90;2231321;79;51473;-71
2023/06/19 02:39:59;;;;;;;;;;;;;;;24.38;50.71;100653.58;2232132;77;51384;-72
2023/06/19 02:43:00;;;;;;;;;;;;;;;24.37;50.52;100653.25;2231285;79;53181;-72
2023/06/19 02:46:02;;;;;;;;;;;;;;;24.38;50.37;100647.31;2207450;79;51149;-72
2023/06/19 02:49:04;;;;;;;;;;;;;;;24.37;50.30;100655.95;2231316;79;50278;-71
2023/06/19 02:52:06;;;;;;;;;;;;;;;24.38;50.33;100650.02;2231648;79;53890;-74
2023/06/19 02:55:08;;;;;;;;;;;;;;;24.35;50.44;100653.99;2231479;79;50358;-74
2023/06/19 02:58:10;;;;;;;;;;;;;;;24.36;50.36;100659.72;2207448;79;51376;-71
2023/06/19 03:01:12;;;;;;;;;;;;;;;24.36;50.23;100654.84;2231539;79;51550;-71
2023/06/19 03:04:14;;;;;;;;;;;;;;;24.36;50.24;100651.61;2253135;78;52266;-71
2023/06/19 03:07:16;;;;;;;;;;;;;;;24.35;50.16;100645.88;2257193;79;51410;-72
2023/06/19 03:10:18;;;;;;;;;;;;;;;24.35;50.13;100651.28;2234006;79;51234;-72
2023/06/19 03:13:19;;;;;;;;;;;;;;;24.36;50.05;100649.44;2233987;79;50618;-71
2023/06/19 03:16:21;;;;;;;;;;;;;;;24.36;50.00;100648.91;2233826;79;50596;-71
2023/06/19 03:19:22;;;;;;;;;;;;;;;24.35;49.97;100644.53;2257240;79;51399;-72
2023/06/19 03:22:24;;;;;;;;;;;;;;;24.35;49.90;100644.53;2209971;79;52562;-71
2023/06/19 03:25:26;;;;;;;;;;;;;;;24.34;49.90;100649.64;2234056;79;51546;-74
2023/06/19 03:28:28;;;;;;;;;;;;;;;24.34;49.86;100653.70;2233950;79;50662;-74
2023/06/19 03:31:31;;;;;;;;;;;;;;;24.34;49.85;100659.11;2257352;77;50630;-71
2023/06/19 03:34:32;;;;;;;;;;;;;;;24.34;49.83;100665.88;2210059;79;49514;-74
2023/06/19 03:37:34;;;;;;;;;;;;;;;24.33;49.77;100667.75;2257155;79;51537;-71
2023/06/19 03:40:36;;;;;;;;;;;;;;;24.34;49.74;100664.52;2234158;78;51390;-72
2023/06/19 03:43:38;;;;;;;;;;;;;;;24.33;49.73;100672.34;2234077;79;50068;-73
2023/06/19 03:46:39;;;;;;;;;;;;;;;24.32;49.71;100666.61;2210068;79;52428;-75
2023/06/19 03:49:41;;;;;;;;;;;;;;;24.32;49.65;100676.89;2235074;78;51437;-71
2023/06/19 03:52:42;;;;;;;;;;;;;;;24.33;49.62;100676.39;2233804;79;50239;-72
2023/06/19 03:55:44;;;;;;;;;;;;;;;24.32;49.59;100678.78;2234158;78;50225;-73
2023/06/19 03:58:46;;;;;;;;;;;;;;;24.31;49.55;100679.84;2233953;78;51147;-72
2023/06/19 04:01:47;;;;;;;;;;;;;;;24.31;49.50;100678.48;2234580;78;50395;-70
2023/06/19 04:04:49;;;;;;;;;;;;;;;24.32;49.46;100680.13;2210613;79;51602;-72
2023/06/19 04:07:50;;;;;;;;;;;;;;;24.30;49.42;100674.96;2254196;79;50639;-71
2023/06/19 04:10:52;;;;;;;;;;;;;;;24.31;49.43;100668.49;2207397;79;51025;-71
2023/06/19 04:13:54;;;;;;;;;;;;;;;24.31;49.40;100660.37;2254465;79;50297;-73
2023/06/19 04:16:55;;;;;;;;;;;;;;;24.31;49.38;100658.20;2251083;77;50639;-74
2023/06/19 04:19:57;;;;;;;;;;;;;;;24.29;49.33;100653.00;2292548;77;51467;-71
2023/06/19 04:22:58;;;;;;;;;;;;;;;24.30;49.27;100645.72;2293245;77;51575;-70
2023/06/19 04:26:00;;;;;;;;;;;;;;;24.30;49.29;100640.30;2292992;77;51426;-73
2023/06/19 04:29:02;;;;;;;;;;;;;;;24.30;49.26;100648.42;2315321;76;51546;-72
2023/06/19 04:32:10;;;;;;;;;;;;;;;24.28;49.30;100642.43;2315434;76;51486;-71
2023/06/19 04:35:07;;;;;;;;;;;;;;;24.28;49.22;100641.90;2314734;76;22788;-71
2023/06/19 04:38:10;;;;;;;;;;;;;;;24.28;49.16;100652.72;2293337;77;51626;-72
2023/06/19 04:41:11;;;;;;;;;;;;;;;24.29;49.13;100657.59;2315433;77;50354;-73
2023/06/19 04:44:13;;;;;;;;;;;;;;;24.29;49.08;100665.17;2293246;77;50649;-71
2023/06/19 04:47:16;;;;;;;;;;;;;;;24.28;49.07;100669.47;2263473;78;51009;-71
2023/06/19 04:50:17;;;;;;;;;;;;;;;24.28;49.07;100672.17;2298222;77;51796;-71
2023/06/19 04:53:19;;;;;;;;;;;;;;;24.30;49.01;100671.41;2293496;77;51433;-70
2023/06/19 04:56:21;;;;;;;;;;;;;;;24.28;48.95;100675.70;2293371;77;51391;-71
2023/06/19 04:59:22;;;;;;;;;;;;;;;24.28;48.91;100674.87;2293367;77;51125;-74
2023/06/19 05:02:24;;;;;;;;;;;;;;;24.27;48.90;100676.73;2293407;77;50460;-72
2023/06/19 05:05:26;;;;;;;;;;;;;;;24.28;48.85;100674.87;2315458;77;50236;-73
2023/06/19 05:08:28;;;;;;;;;;;;;;;24.26;48.83;100675.62;2269710;77;51515;-72
2023/06/19 05:11:29;;;;;;;;;;;;;;;24.27;48.87;100682.14;2243477;77;51119;-74
2023/06/19 05:14:31;;;;;;;;;;;;;;;24.27;48.84;100681.31;2275169;77;50392;-71
2023/06/19 05:17:32;;;;;;;;;;;;;;;24.26;48.83;100687.25;2253328;77;51423;-71
2023/06/19 05:20:34;;;;;;;;;;;;;;;24.23;48.63;100683.64;2257521;78;51411;-73
2023/06/19 05:23:36;;;;;;;;;;;;;;;24.22;48.10;100690.61;2257172;79;52356;-70
2023/06/19 05:26:37;;;;;;;;;;;;;;;24.15;48.17;100696.58;2256967;77;51520;-71
2023/06/19 05:29:39;;;;;;;;;;;;;;;24.12;47.91;100695.14;2257208;77;51507;-72
2023/06/19 05:32:41;;;;;;;;;;;;;;;24.05;47.93;100692.50;2257184;78;51518;-71
2023/06/19 05:35:43;;;;;;;;;;;;;;;24.04;48.00;100688.13;2234549;78;51028;-73
2023/06/19 05:38:45;;;;;;;;;;;;;;;24.04;48.06;100693.53;2233994;78;50264;-72
2023/06/19 05:41:46;;;;;;;;;;;;;;;24.04;48.17;100697.59;2268927;76;50006;-75
2023/06/19 05:44:48;;;;;;;;;;;;;;;24.05;48.18;100700.62;2244694;78;50386;-73
2023/06/19 05:47:49;;;;;;;;;;;;;;;24.08;48.28;100695.30;2237796;78;51220;-73
2023/06/19 05:50:51;;;;;;;;;;;;;;;24.09;48.33;100699.11;2233306;79;50672;-75
2023/06/19 05:53:52;;;;;;;;;;;;;;;24.10;48.36;100698.09;2233809;79;51782;-74
2023/06/19 05:56:54;;;;;;;;;;;;;;;24.11;48.46;100698.37;2234725;78;50742;-74
2023/06/19 05:59:56;;;;;;;;;;;;;;;24.11;48.42;100692.97;2210037;78;51268;-75
2023/06/19 06:02:59;;;;;;;;;;;;;;;24.12;48.45;100690.59;2265387;77;50302;-75
2023/06/19 06:06:03;;;;;;;;;;;;;;;24.13;48.70;100692.77;2308720;75;23750;-74
2023/06/19 06:09:04;;;;;;;;;;;;;;;24.13;48.66;100685.48;2308578;77;22405;-74
2023/06/19 06:12:06;;;;;;;;;;;;;;;24.13;48.76;100684.13;2308419;76;51540;-73
2023/06/19 06:15:08;;;;;;;;;;;;;;;24.15;48.79;100688.47;2308514;76;50739;-73
2023/06/19 06:18:09;;;;;;;;;;;;;;;24.14;48.75;100683.59;2240322;77;51443;-73
2023/06/19 06:21:12;;;;;;;;;;;;;;;24.15;48.79;100678.52;2256763;78;50417;-73
2023/06/19 06:24:14;;;;;;;;;;;;;;;24.14;48.73;100679.54;2210118;79;50108;-71
2023/06/19 06:27:16;;;;;;;;;;;;;;;24.13;48.72;100681.95;2233757;78;51443;-71
2023/06/19 06:30:17;;;;;;;;;;;;;;;24.13;48.64;100681.42;2257101;78;50675;-72
2023/06/19 06:33:19;;;;;;;;;;;;;;;24.13;48.62;100688.18;2257065;79;50176;-72
2023/06/19 06:36:21;;;;;;;;;;;;;;;24.15;48.58;100697.94;2209709;79;51233;-72
2023/06/19 06:39:22;;;;;;;;;;;;;;;24.14;48.58;100695.77;2257015;79;50502;-72
2023/06/19 06:42:24;;;;;;;;;;;;;;;24.15;48.57;100696.09;2233732;79;51426;-72
2023/06/19 06:45:25;;;;;;;;;;;;;;;24.14;48.60;100702.52;2233858;78;51537;-72
2023/06/19 06:48:27;;;;;;;;;;;;;;;24.15;48.58;100705.55;2232761;78;52335;-72
2023/06/19 06:51:28;;;;;;;;;;;;;;;24.15;48.57;100704.20;2233708;79;51485;-72
2023/06/19 06:54:30;;;;;;;;;;;;;;;24.15;48.57;100712.80;2257047;77;50252;-72
2023/06/19 06:57:32;;;;;;;;;;;;;;;24.16;48.55;100709.07;2233637;78;50291;-72
2023/06/19 07:00:33;;;;;;;;;;;;;;;24.15;48.58;100703.34;2257067;77;50694;-72
2023/06/19 07:03:35;;;;;;;;;;;;;;;24.15;48.57;100704.69;2233519;78;50583;-72
2023/06/19 07:06:36;;;;;;;;;;;;;;;24.16;48.57;100707.72;2232779;79;49680;-72
2023/06/19 07:09:38;;;;;;;;;;;;;;;24.17;48.57;100714.77;2233933;78;50705;-72
2023/06/19 07:12:46;;;;;;;;;;;;;;;24.18;48.58;100709.69;2256947;78;52133;-72
2023/06/19 07:15:48;;;;;;;;;;;;;;;24.18;48.57;100715.09;2257030;79;50264;-72
2023/06/19 07:18:49;;;;;;;;;;;;;;;24.18;48.55;100709.69;2233602;78;50633;-72
2023/06/19 07:21:51;;;;;;;;;;;;;;;24.18;48.57;100710.52;2256865;77;52509;-73
2023/06/19 07:24:52;;;;;;;;;;;;;;;24.19;48.55;100705.92;2210050;79;52476;-72
2023/06/19 07:27:54;;;;;;;;;;;;;;;24.19;48.55;100707.28;2256797;78;51410;-72
2023/06/19 07:30:56;;;;;;;;;;;;;;;24.18;48.52;100699.70;2257237;77;51387;-73
2023/06/19 07:33:57;;;;;;;;;;;;;;;24.20;48.53;100703.52;2267989;77;50034;-72
2023/06/19 07:36:59;;;;;;;;;;;;;;;24.20;48.54;100707.57;2218611;79;51233;-72
2023/06/19 07:40:00;;;;;;;;;;;;;;;24.21;48.50;100716.00;2257089;78;50319;-73
2023/06/19 07:43:02;;;;;;;;;;;;;;;24.21;48.55;100717.36;2257047;77;50327;-73
2023/06/19 07:46:03;;;;;;;;;;;;;;;24.21;48.51;100718.18;2233856;78;50118;-73
2023/06/19 07:49:05;;;;;;;;;;;;;;;24.21;48.50;100717.36;2209569;79;51572;-73
2023/06/19 07:52:09;;;;;;;;;;;;;;;24.21;48.51;100714.13;2233857;78;51525;-73
2023/06/19 07:55:11;;;;;;;;;;;;;;;24.22;48.49;100723.05;2257265;77;50664;-73
2023/06/19 07:58:12;;;;;;;;;;;;;;;24.23;48.47;100728.79;2233672;79;50640;-73
2023/06/19 08:01:14;;;;;;;;;;;;;;;24.22;48.49;100723.88;2233746;78;52543;-73
2023/06/19 08:04:15;;;;;;;;;;;;;;;24.24;48.48;100719.62;2249626;77;51408;-72
2023/06/19 08:07:17;;;;;;;;;;;;;;;24.23;48.49;100715.27;2257994;77;51402;-73
2023/06/19 08:10:18;;;;;;;;;;;;;;;24.23;48.46;100714.73;2254349;78;51662;-72
2023/06/19 08:13:20;;;;;;;;;;;;;;;24.24;48.46;100716.91;2231090;77;52443;-71
2023/06/19 08:16:22;;;;;;;;;;;;;;;24.24;48.48;100724.50;2231036;79;51480;-72
2023/06/19 08:19:23;;;;;;;;;;;;;;;24.24;48.46;100725.84;2231385;78;50266;-72
2023/06/19 08:22:25;;;;;;;;;;;;;;;24.25;48.50;100722.61;2254158;77;50046;-73
2023/06/19 08:25:26;;;;;;;;;;;;;;;24.26;48.47;100721.59;2254141;77;50728;-73
2023/06/19 08:28:28;;;;;;;;;;;;;;;24.25;48.46;100720.77;2231066;77;50232;-73
2023/06/19 08:31:30;;;;;;;;;;;;;;;24.26;48.45;100720.23;2254214;77;51401;-73
2023/06/19 08:34:31;;;;;;;;;;;;;;;24.25;48.44;100723.47;2253301;78;50238;-73
2023/06/19 08:37:33;;;;;;;;;;;;;;;24.25;48.42;100724.81;2233480;78;51195;-73
2023/06/19 08:40:35;;;;;;;;;;;;;;;24.24;48.42;100723.14;2257025;78;51524;-72
2023/06/19 08:43:37;;;;;;;;;;;;;;;24.24;48.43;100725.84;2256971;77;51620;-73
2023/06/19 08:46:40;;;;;;;;;;;;;;;24.25;48.46;100723.97;2256766;78;51464;-72
2023/06/19 08:49:41;;;;;;;;;;;;;;;24.26;48.42;100722.94;2233188;79;52618;-72
2023/06/19 08:52:43;;;;;;;;;;;;;;;24.25;48.46;100719.41;2233775;79;50429;-72
2023/06/19 08:55:45;;;;;;;;;;;;;;;24.25;48.43;100714.00;2257185;77;50398;-73
2023/06/19 08:58:47;;;;;;;;;;;;;;;24.26;48.40;100714.83;2256824;77;51565;-73
2023/06/19 09:01:52;;;;;;;;;;;;;;;24.27;48.39;100713.23;2257198;77;50778;-73
2023/06/19 09:04:54;;;;;;;;;;;;;;;24.27;48.35;100709.70;2282343;75;50310;-73
2023/06/19 09:07:56;;;;;;;;;;;;;;;24.27;48.41;100707.00;2292835;76;50401;-72
2023/06/19 09:10:59;;;;;;;;;;;;;;;24.26;48.43;100706.18;2315298;75;50764;-73
2023/06/19 09:14:00;;;;;;;;;;;;;;;24.27;48.48;100709.70;2293048;75;49607;-72
2023/06/19 09:17:05;;;;;;;;;;;;;;;24.27;48.58;100715.94;2315051;75;50225;-72
2023/06/19 09:20:08;;;;;;;;;;;;;;;24.27;48.67;100727.28;2315158;75;50756;-73
2023/06/19 09:23:10;;;;;;;;;;;;;;;24.26;48.70;100731.87;2315316;76;51472;-73
2023/06/19 09:26:14;;;;;;;;;;;;;;;24.27;48.78;100727.28;2292894;76;52600;-73
2023/06/19 09:29:17;;;;;;;;;;;;;;;24.27;48.69;100723.23;2315352;76;51536;-73
2023/06/19 09:32:20;;;;;;;;;;;;;;;24.29;48.63;100718.44;2305061;76;51511;-73
2023/06/19 09:35:21;;;;;;;;;;;;;;;24.28;48.64;100720.32;2256142;77;50653;-73
2023/06/19 09:38:27;;;;;;;;;;;;;;;24.28;48.67;100720.84;2233526;79;52370;-72
2023/06/19 09:41:29;;;;;;;;;;;;;;;24.27;48.66;100712.41;2234127;78;50386;-73
2023/06/19 09:44:32;;;;;;;;;;;;;;;24.27;48.69;100719.17;2257063;77;51448;-72
2023/06/19 09:47:37;;;;;;;;;;;;;;;24.27;48.68;100726.75;2233621;78;50686;-73
2023/06/19 09:50:38;;;;;;;;;;;;;;;24.27;48.69;100724.05;2210048;79;52099;-73
2023/06/19 09:53:40;;;;;;;;;;;;;;;24.27;48.72;100729.45;2233997;78;52520;-73
2023/06/19 09:56:42;;;;;;;;;;;;;;;24.28;48.72;100738.42;2256867;78;50400;-73
2023/06/19 09:59:44;;;;;;;;;;;;;;;24.26;48.80;100736.45;2257005;79;51470;-73
2023/06/19 10:02:46;;;;;;;;;;;;;;;24.26;48.80;100738.63;2236403;77;51026;-73
2023/06/19 10:05:47;;;;;;;;;;;;;;;24.27;48.83;100736.75;2272678;76;51446;-73
2023/06/19 10:08:51;;;;;;;;;;;;;;;24.27;48.82;100725.41;2254004;79;50760;-73
2023/06/19 10:11:52;;;;;;;;;;;;;;;24.28;48.77;100714.09;2254271;78;50660;-73
2023/06/19 10:14:54;;;;;;;;;;;;;;;24.27;48.81;100705.13;2232313;78;51215;-74
2023/06/19 10:18:07;;;;;;;;;;;;;;;24.27;48.76;100699.72;2255402;77;49996;-73
2023/06/19 10:21:06;;;;;;;;;;;;;;;24.27;48.79;100699.72;2253252;77;22367;-73
2023/06/19 10:24:09;;;;;;;;;;;;;;;24.27;48.85;100697.54;2231171;79;50408;-73
2023/06/19 10:27:12;;;;;;;;;;;;;;;24.26;48.90;100695.89;2229955;77;49621;-73
2023/06/19 10:30:20;;;;;;;;;;;;;;;24.27;48.89;100690.78;2231267;79;51596;-72
2023/06/19 10:33:23;;;;;;;;;;;;;;;24.29;48.85;100688.69;2245212;78;51585;-73
2023/06/19 10:36:25;;;;;;;;;;;;;;;24.28;48.86;100685.16;2273542;76;51438;-73
2023/06/19 10:39:27;;;;;;;;;;;;;;;24.29;48.88;100680.58;2207426;79;51681;-72
2023/06/19 10:42:29;;;;;;;;;;;;;;;24.29;48.89;100685.45;2231121;79;49905;-73
2023/06/19 10:45:30;;;;;;;;;;;;;;;24.29;48.92;100679.23;2230924;77;50048;-73
2023/06/19 10:48:32;;;;;;;;;;;;;;;24.29;48.92;100681.93;2254016;77;50707;-73
2023/06/19 10:51:37;;;;;;;;;;;;;;;24.29;48.94;100672.47;2230759;77;52446;-73
2023/06/19 10:54:38;;;;;;;;;;;;;;;24.29;48.96;100667.87;2231387;79;51484;-73
2023/06/19 10:57:45;;;;;;;;;;;;;;;24.31;48.93;100661.73;2232381;78;51485;-73
2023/06/19 11:00:46;;;;;;;;;;;;;;;24.32;48.90;100660.67;2257065;78;51375;-73
2023/06/19 11:03:48;;;;;;;;;;;;;;;24.32;48.98;100655.80;2233862;78;52450;-73
2023/06/19 11:06:50;;;;;;;;;;;;;;;24.32;48.98;100644.98;2256723;77;50757;-73
2023/06/19 11:09:51;;;;;;;;;;;;;;;24.32;49.03;100643.09;2256936;77;50345;-73
2023/06/19 11:12:54;;;;;;;;;;;;;;;24.33;48.98;100625.84;2257004;77;50038;-73
2023/06/19 11:15:56;;;;;;;;;;;;;;;24.34;49.01;100633.42;2232860;78;50913;-73
2023/06/19 11:18:58;;;;;;;;;;;;;;;24.34;49.11;100638.83;2233794;78;51430;-73
2023/06/19 11:22:04;;;;;;;;;;;;;;;24.37;49.03;100638.38;2257012;77;51463;-73
2023/06/19 11:25:03;;;;;;;;;;;;;;;24.38;49.09;100644.11;2256385;78;22515;-73
2023/06/19 11:28:05;;;;;;;;;;;;;;;24.37;49.06;100645.14;2253316;77;52618;-73
2023/06/19 11:31:09;;;;;;;;;;;;;;;24.36;49.12;100640.80;2240892;77;51338;-73
2023/06/19 11:34:11;;;;;;;;;;;;;;;24.37;49.08;100641.61;2200103;80;50270;-72
2023/06/19 11:37:14;;;;;;;;;;;;;;;24.39;49.04;100646.28;2222116;79;51559;-72
2023/06/19 11:40:18;;;;;;;;;;;;;;;24.37;49.09;100637.03;2199201;80;52365;-72
2023/06/19 11:43:25;;;;;;;;;;;;;;;24.36;49.07;100642.14;2222529;79;22292;-72
2023/06/19 11:46:30;;;;;;;;;;;;;;;24.38;49.06;100640.55;2222055;79;50381;-73
2023/06/19 11:49:34;;;;;;;;;;;;;;;24.39;49.06;100644.40;2176641;80;51226;-73
2023/06/19 11:52:36;;;;;;;;;;;;;;;24.41;49.03;100641.48;2199988;79;52516;-73
2023/06/19 11:55:38;;;;;;;;;;;;;;;24.43;48.98;100650.18;2205682;77;51552;-72
2023/06/19 11:58:39;;;;;;;;;;;;;;;24.44;48.94;100655.38;2255973;78;49975;-73
2023/06/19 12:01:41;;;;;;;;;;;;;;;24.45;48.93;100650.29;2257292;79;50296;-72
2023/06/19 12:04:43;;;;;;;;;;;;;;;24.43;48.97;100644.27;2257228;78;50612;-72
2023/06/19 12:07:44;;;;;;;;;;;;;;;24.46;48.91;100649.80;2233887;79;50365;-72
2023/06/19 12:10:46;;;;;;;;;;;;;;;24.46;48.93;100646.56;2257040;77;50251;-73
2023/06/19 12:13:47;;;;;;;;;;;;;;;24.47;48.92;100643.32;2257075;77;50643;-73
2023/06/19 12:16:49;;;;;;;;;;;;;;;24.45;48.92;100648.94;2210028;79;52476;-73
2023/06/19 12:19:51;;;;;;;;;;;;;;;24.47;48.87;100640.62;2257085;78;51439;-73
2023/06/19 12:22:53;;;;;;;;;;;;;;;24.48;48.82;100642.26;2234113;78;50308;-73
2023/06/19 12:25:54;;;;;;;;;;;;;;;24.50;48.80;100634.75;2257729;77;50262;-72
2023/06/19 12:28:56;;;;;;;;;;;;;;;24.51;48.78;100633.72;2251893;77;51070;-72
2023/06/19 12:32:05;;;;;;;;;;;;;;;24.50;48.77;100630.70;2233774;78;50612;-73
2023/06/19 12:35:06;;;;;;;;;;;;;;;24.52;48.75;100628.08;2234010;78;22811;-73
2023/06/19 12:38:08;;;;;;;;;;;;;;;24.53;48.71;100628.89;2234511;79;50428;-73
2023/06/19 12:41:09;;;;;;;;;;;;;;;24.51;48.75;100634.55;2234663;78;52525;-73
2023/06/19 12:44:11;;;;;;;;;;;;;;;24.53;48.75;100643.27;2257080;78;51414;-73
2023/06/19 12:47:12;;;;;;;;;;;;;;;24.54;48.69;100636.80;2256968;77;50707;-73
2023/06/19 12:50:14;;;;;;;;;;;;;;;24.52;48.74;100626.72;2233798;79;51406;-72
2023/06/19 12:53:16;;;;;;;;;;;;;;;24.57;48.64;100627.94;2233806;79;52502;-73
2023/06/19 12:56:17;;;;;;;;;;;;;;;24.56;48.58;100621.70;2257310;77;50730;-74
2023/06/19 12:59:19;;;;;;;;;;;;;;;24.58;48.51;100621.47;2255984;77;51386;-73
2023/06/19 13:02:20;;;;;;;;;;;;;;;24.60;48.41;100623.43;2253153;77;51426;-73
2023/06/19 13:05:22;;;;;;;;;;;;;;;24.57;48.33;100615.23;2250368;78;52326;-73
2023/06/19 13:08:24;;;;;;;;;;;;;;;24.57;48.32;100621.17;2233655;78;51449;-73
2023/06/19 13:11:25;;;;;;;;;;;;;;;24.52;48.35;100611.84;2233637;79;49908;-73
2023/06/19 13:14:27;;;;;;;;;;;;;;;24.54;48.27;100612.98;2233733;79;49995;-73
2023/06/19 13:17:28;;;;;;;;;;;;;;;24.56;48.20;100614.95;2209484;79;51660;-73
2023/06/19 13:20:30;;;;;;;;;;;;;;;24.57;48.15;100612.53;2257080;77;50638;-72
2023/06/19 13:23:31;;;;;;;;;;;;;;;24.58;48.10;100612.81;2257062;77;50631;-72
2023/06/19 13:26:33;;;;;;;;;;;;;;;24.60;48.08;100610.72;2256834;77;50740;-73
2023/06/19 13:29:35;;;;;;;;;;;;;;;24.60;48.06;100612.08;2233733;79;49514;-73
2023/06/19 13:32:37;;;;;;;;;;;;;;;24.61;48.08;100611.05;2234293;77;50402;-73
2023/06/19 13:35:39;;;;;;;;;;;;;;;24.63;48.06;100604.04;2276199;77;51622;-73
2023/06/19 13:38:40;;;;;;;;;;;;;;;24.62;48.09;100602.39;2233475;79;51413;-73
2023/06/19 13:41:42;;;;;;;;;;;;;;;24.61;48.12;100602.93;2233641;79;52346;-73
2023/06/19 13:44:44;;;;;;;;;;;;;;;24.60;48.14;100593.14;2257105;78;50219;-73
2023/06/19 13:47:45;;;;;;;;;;;;;;;24.62;48.10;100595.63;2233844;78;50293;-72
2023/06/19 13:50:50;;;;;;;;;;;;;;;24.64;48.07;100594.89;2218782;80;50617;-72
2023/06/19 13:53:51;;;;;;;;;;;;;;;24.64;48.07;100589.48;2222396;80;51469;-72
2023/06/19 13:56:53;;;;;;;;;;;;;;;24.64;48.07;100582.19;2222080;79;51475;-72
2023/06/19 13:59:55;;;;;;;;;;;;;;;24.63;48.15;100584.56;2199883;80;50797;-73
2023/06/19 14:02:56;;;;;;;;;;;;;;;24.65;48.16;100578.94;2209984;77;51447;-72
2023/06/19 14:05:58;;;;;;;;;;;;;;;24.66;48.13;100584.14;2227865;78;52274;-74
2023/06/19 14:08:59;;;;;;;;;;;;;;;24.65;48.18;100577.59;2231067;79;51875;-73
2023/06/19 14:12:01;;;;;;;;;;;;;;;24.65;48.18;100572.18;2230851;78;51479;-73
2023/06/19 14:15:03;;;;;;;;;;;;;;;24.65;48.21;100578.94;2231335;79;50654;-73
2023/06/19 14:18:05;;;;;;;;;;;;;;;24.66;48.21;100577.38;2206911;79;51103;-73
2023/06/19 14:21:06;;;;;;;;;;;;;;;24.69;48.16;100584.22;2231225;79;51443;-73
2023/06/19 14:24:08;;;;;;;;;;;;;;;24.68;48.17;100583.90;2254110;77;50394;-72
2023/06/19 14:27:10;;;;;;;;;;;;;;;24.69;48.18;100586.92;2254014;78;50263;-71
2023/06/19 14:30:11;;;;;;;;;;;;;;;24.69;48.17;100582.33;2231017;77;51609;-73
2023/06/19 14:33:16;;;;;;;;;;;;;;;24.70;48.17;100582.63;2254107;79;50293;-72
2023/06/19 14:36:18;;;;;;;;;;;;;;;24.70;48.19;100584.50;2233420;79;50209;-73
2023/06/19 14:39:19;;;;;;;;;;;;;;;24.69;48.22;100581.52;2257248;77;51564;-73
2023/06/19 14:42:21;;;;;;;;;;;;;;;24.69;48.18;100589.63;2233822;78;50952;-72
2023/06/19 14:45:23;;;;;;;;;;;;;;;24.71;48.18;100591.56;2233793;78;51417;-73
2023/06/19 14:48:24;;;;;;;;;;;;;;;24.71;48.14;100591.56;2233304;79;50176;-72
2023/06/19 14:51:26;;;;;;;;;;;;;;;24.72;48.16;100597.29;2233450;79;50316;-72
2023/06/19 14:54:27;;;;;;;;;;;;;;;24.81;48.13;100604.57;2234073;78;52553;-71
2023/06/19 14:57:29;;;;;;;;;;;;;;;24.96;47.58;100603.66;2233209;79;50074;-72
2023/06/19 15:00:31;;;;;;;;;;;;;;;25.19;46.13;100605.17;2256903;78;50425;-72
2023/06/19 15:03:32;;;;;;;;;;;;;;;25.27;46.19;100592.38;2240674;77;50320;-71
2023/06/19 15:06:34;;;;;;;;;;;;;;;25.13;47.25;100595.77;2248381;77;51094;-72
2023/06/19 15:09:35;;;;;;;;;;;;;;;25.07;47.84;100596.66;2257782;77;50404;-72
2023/06/19 15:12:37;;;;;;;;;;;;;;;25.01;48.17;100594.88;2274317;77;50258;-73
2023/06/19 15:15:38;;;;;;;;;;;;;;;24.97;48.21;100599.39;2252977;78;50415;-75
2023/06/19 15:18:40;;;;;;;;;;;;;;;24.94;48.04;100595.76;2263421;77;50326;-72
2023/06/19 15:21:42;;;;;;;;;;;;;;;24.89;48.26;100587.52;2286060;77;52669;-71
2023/06/19 15:24:44;;;;;;;;;;;;;;;24.93;48.61;100594.65;2225898;77;50860;-72
2023/06/19 15:27:45;;;;;;;;;;;;;;;24.95;48.56;100595.26;2256407;78;50640;-75
2023/06/19 15:30:47;;;;;;;;;;;;;;;24.96;48.82;100594.19;2234063;78;50376;-73
2023/06/19 15:33:48;;;;;;;;;;;;;;;24.97;48.95;100589.06;2252956;78;50099;-72